sensor_id;sensor_type;location;lat;lon;timestamp;P1;durP1;ratioP1;P2;durP2;ratioP2
19095;SDS011;9680;52.520;13.332;2023-02-28T00:01:23;8.47;;;2.90;;
19095;SDS011;9680;52.520;13.332;2023-02-28T00:03:50;7.93;;;2.97;;
19095;SDS011;9680;52.520;13.332;2023-02-28T00:06:17;7.10;;;2.90;;
19095;SDS011;9680;52.520;13.332;2023-02-28T00:08:45;9.87;;;3.10;;
19095;SDS011;9680;52.520;13.332;2023-02-28T00:11:12;9.00;;;3.60;;
19095;SDS011;9680;52.520;13.332;2023-02-28T00:13:42;6.00;;;2.70;;
19095;SDS011;9680;52.520;13.332;2023-02-28T00:16:12;9.97;;;3.57;;
19095;SDS011;9680;52.520;13.332;2023-02-28T00:18:40;6.87;;;2.53;;
19095;SDS011;9680;52.520;13.332;2023-02-28T00:21:08;7.17;;;2.67;;
19095;SDS011;9680;52.520;13.332;2023-02-28T00:23:35;9.10;;;2.77;;
19095;SDS011;9680;52.520;13.332;2023-02-28T00:26:03;6.87;;;2.37;;
19095;SDS011;9680;52.520;13.332;2023-02-28T00:28:30;7.93;;;2.73;;
19095;SDS011;9680;52.520;13.332;2023-02-28T00:30:59;9.33;;;2.53;;
19095;SDS011;9680;52.520;13.332;2023-02-28T00:33:28;9.40;;;2.80;;
19095;SDS011;9680;52.520;13.332;2023-02-28T00:36:02;8.13;;;3.23;;
19095;SDS011;9680;52.520;13.332;2023-02-28T00:38:30;5.83;;;2.63;;
19095;SDS011;9680;52.520;13.332;2023-02-28T00:40:57;9.43;;;3.10;;
19095;SDS011;9680;52.520;13.332;2023-02-28T00:43:29;7.73;;;2.90;;
19095;SDS011;9680;52.520;13.332;2023-02-28T00:45:57;8.70;;;3.07;;
19095;SDS011;9680;52.520;13.332;2023-02-28T00:48:25;11.77;;;3.40;;
19095;SDS011;9680;52.520;13.332;2023-02-28T00:50:52;6.67;;;2.93;;
19095;SDS011;9680;52.520;13.332;2023-02-28T00:53:19;7.47;;;2.53;;
19095;SDS011;9680;52.520;13.332;2023-02-28T00:55:47;7.27;;;2.63;;
19095;SDS011;9680;52.520;13.332;2023-02-28T00:58:14;6.57;;;2.70;;
19095;SDS011;9680;52.520;13.332;2023-02-28T01:00:41;10.23;;;3.00;;
19095;SDS011;9680;52.520;13.332;2023-02-28T01:03:10;7.60;;;3.00;;
19095;SDS011;9680;52.520;13.332;2023-02-28T01:05:38;6.83;;;2.60;;
19095;SDS011;9680;52.520;13.332;2023-02-28T01:08:06;6.50;;;2.73;;
19095;SDS011;9680;52.520;13.332;2023-02-28T01:10:33;7.40;;;2.93;;
19095;SDS011;9680;52.520;13.332;2023-02-28T01:13:02;12.13;;;2.80;;
19095;SDS011;9680;52.520;13.332;2023-02-28T01:15:29;6.53;;;2.97;;
19095;SDS011;9680;52.520;13.332;2023-02-28T01:17:57;8.97;;;2.90;;
19095;SDS011;9680;52.520;13.332;2023-02-28T01:20:24;8.53;;;3.10;;
19095;SDS011;9680;52.520;13.332;2023-02-28T01:22:52;7.73;;;3.03;;
19095;SDS011;9680;52.520;13.332;2023-02-28T01:25:19;6.70;;;2.83;;
19095;SDS011;9680;52.520;13.332;2023-02-28T01:27:45;8.17;;;2.77;;
19095;SDS011;9680;52.520;13.332;2023-02-28T01:30:12;8.53;;;3.20;;
19095;SDS011;9680;52.520;13.332;2023-02-28T01:32:39;8.53;;;3.00;;
19095;SDS011;9680;52.520;13.332;2023-02-28T01:35:06;10.53;;;3.43;;
19095;SDS011;9680;52.520;13.332;2023-02-28T01:37:33;5.97;;;2.90;;
19095;SDS011;9680;52.520;13.332;2023-02-28T01:40:02;8.00;;;2.73;;
19095;SDS011;9680;52.520;13.332;2023-02-28T01:42:29;8.07;;;2.70;;
19095;SDS011;9680;52.520;13.332;2023-02-28T01:45:00;6.83;;;2.90;;
19095;SDS011;9680;52.520;13.332;2023-02-28T01:50:20;8.07;;;3.10;;
19095;SDS011;9680;52.520;13.332;2023-02-28T01:52:50;9.37;;;3.10;;
19095;SDS011;9680;52.520;13.332;2023-02-28T01:55:20;10.33;;;4.43;;
19095;SDS011;9680;52.520;13.332;2023-02-28T01:57:57;12.07;;;3.80;;
19095;SDS011;9680;52.520;13.332;2023-02-28T02:00:27;7.33;;;2.93;;
19095;SDS011;9680;52.520;13.332;2023-02-28T02:02:56;11.13;;;3.23;;
19095;SDS011;9680;52.520;13.332;2023-02-28T02:05:26;8.47;;;2.90;;
19095;SDS011;9680;52.520;13.332;2023-02-28T02:07:56;6.03;;;2.70;;
19095;SDS011;9680;52.520;13.332;2023-02-28T02:10:31;6.30;;;3.00;;
19095;SDS011;9680;52.520;13.332;2023-02-28T02:13:18;6.50;;;3.20;;
19095;SDS011;9680;52.520;13.332;2023-02-28T02:16:08;7.10;;;2.80;;
19095;SDS011;9680;52.520;13.332;2023-02-28T02:18:45;12.63;;;3.20;;
19095;SDS011;9680;52.520;13.332;2023-02-28T02:27:28;7.60;;;3.00;;
19095;SDS011;9680;52.520;13.332;2023-02-28T02:30:21;6.43;;;3.10;;
19095;SDS011;9680;52.520;13.332;2023-02-28T02:33:03;8.17;;;3.30;;
19095;SDS011;9680;52.520;13.332;2023-02-28T02:35:43;8.87;;;3.17;;
19095;SDS011;9680;52.520;13.332;2023-02-28T02:38:19;8.03;;;3.20;;
19095;SDS011;9680;52.520;13.332;2023-02-28T02:40:56;8.87;;;3.20;;
19095;SDS011;9680;52.520;13.332;2023-02-28T02:43:31;8.73;;;3.60;;
19095;SDS011;9680;52.520;13.332;2023-02-28T02:46:04;8.17;;;3.23;;
19095;SDS011;9680;52.520;13.332;2023-02-28T02:48:36;8.10;;;3.13;;
19095;SDS011;9680;52.520;13.332;2023-02-28T02:51:10;6.77;;;3.20;;
19095;SDS011;9680;52.520;13.332;2023-02-28T02:53:42;10.97;;;3.53;;
19095;SDS011;9680;52.520;13.332;2023-02-28T02:56:14;9.80;;;3.23;;
19095;SDS011;9680;52.520;13.332;2023-02-28T02:58:44;9.63;;;3.50;;
19095;SDS011;9680;52.520;13.332;2023-02-28T03:01:16;8.40;;;3.10;;
19095;SDS011;9680;52.520;13.332;2023-02-28T03:03:54;9.67;;;3.50;;
19095;SDS011;9680;52.520;13.332;2023-02-28T03:06:25;8.87;;;3.40;;
19095;SDS011;9680;52.520;13.332;2023-02-28T03:08:53;9.83;;;3.73;;
19095;SDS011;9680;52.520;13.332;2023-02-28T03:11:21;8.63;;;3.30;;
19095;SDS011;9680;52.520;13.332;2023-02-28T03:13:54;8.70;;;3.57;;
19095;SDS011;9680;52.520;13.332;2023-02-28T03:16:36;10.23;;;3.63;;
19095;SDS011;9680;52.520;13.332;2023-02-28T03:19:20;8.03;;;3.10;;
19095;SDS011;9680;52.520;13.332;2023-02-28T03:22:04;7.93;;;3.47;;
19095;SDS011;9680;52.520;13.332;2023-02-28T03:24:41;11.93;;;3.57;;
19095;SDS011;9680;52.520;13.332;2023-02-28T03:27:15;8.10;;;3.63;;
19095;SDS011;9680;52.520;13.332;2023-02-28T03:29:47;10.43;;;3.00;;
19095;SDS011;9680;52.520;13.332;2023-02-28T03:32:21;9.73;;;3.57;;
19095;SDS011;9680;52.520;13.332;2023-02-28T03:34:54;10.03;;;3.50;;
19095;SDS011;9680;52.520;13.332;2023-02-28T03:37:26;9.83;;;3.50;;
19095;SDS011;9680;52.520;13.332;2023-02-28T03:39:56;8.93;;;3.60;;
19095;SDS011;9680;52.520;13.332;2023-02-28T03:42:28;12.00;;;3.80;;
19095;SDS011;9680;52.520;13.332;2023-02-28T03:44:58;9.60;;;4.10;;
19095;SDS011;9680;52.520;13.332;2023-02-28T03:47:29;8.73;;;3.30;;
19095;SDS011;9680;52.520;13.332;2023-02-28T03:50:01;13.20;;;3.90;;
19095;SDS011;9680;52.520;13.332;2023-02-28T03:52:34;9.70;;;3.83;;
19095;SDS011;9680;52.520;13.332;2023-02-28T03:55:05;15.47;;;4.00;;
19095;SDS011;9680;52.520;13.332;2023-02-28T03:57:37;10.13;;;3.83;;
19095;SDS011;9680;52.520;13.332;2023-02-28T04:00:10;8.87;;;3.57;;
19095;SDS011;9680;52.520;13.332;2023-02-28T04:02:40;8.53;;;3.70;;
19095;SDS011;9680;52.520;13.332;2023-02-28T04:05:07;9.23;;;3.60;;
19095;SDS011;9680;52.520;13.332;2023-02-28T04:07:36;10.13;;;3.70;;
19095;SDS011;9680;52.520;13.332;2023-02-28T04:10:03;8.33;;;3.53;;
19095;SDS011;9680;52.520;13.332;2023-02-28T04:12:30;10.00;;;3.87;;
19095;SDS011;9680;52.520;13.332;2023-02-28T04:14:57;8.67;;;3.43;;
19095;SDS011;9680;52.520;13.332;2023-02-28T04:17:24;11.80;;;3.90;;
19095;SDS011;9680;52.520;13.332;2023-02-28T04:19:51;8.43;;;3.70;;
19095;SDS011;9680;52.520;13.332;2023-02-28T04:22:19;11.77;;;3.57;;
19095;SDS011;9680;52.520;13.332;2023-02-28T04:24:47;11.27;;;3.90;;
19095;SDS011;9680;52.520;13.332;2023-02-28T04:27:13;10.07;;;4.00;;
19095;SDS011;9680;52.520;13.332;2023-02-28T04:29:40;9.73;;;3.80;;
19095;SDS011;9680;52.520;13.332;2023-02-28T04:32:09;13.00;;;3.90;;
19095;SDS011;9680;52.520;13.332;2023-02-28T04:34:36;14.43;;;4.17;;
19095;SDS011;9680;52.520;13.332;2023-02-28T04:37:03;7.53;;;3.67;;
19095;SDS011;9680;52.520;13.332;2023-02-28T04:39:30;10.10;;;3.70;;
19095;SDS011;9680;52.520;13.332;2023-02-28T04:42:03;9.93;;;4.03;;
19095;SDS011;9680;52.520;13.332;2023-02-28T04:44:29;8.50;;;3.80;;
19095;SDS011;9680;52.520;13.332;2023-02-28T04:46:56;9.03;;;3.70;;
19095;SDS011;9680;52.520;13.332;2023-02-28T04:49:23;10.97;;;4.20;;
19095;SDS011;9680;52.520;13.332;2023-02-28T04:51:50;9.23;;;3.93;;
19095;SDS011;9680;52.520;13.332;2023-02-28T04:54:18;9.23;;;3.70;;
19095;SDS011;9680;52.520;13.332;2023-02-28T04:56:44;14.57;;;4.30;;
19095;SDS011;9680;52.520;13.332;2023-02-28T04:59:14;8.30;;;4.00;;
19095;SDS011;9680;52.520;13.332;2023-02-28T05:01:44;9.33;;;3.80;;
19095;SDS011;9680;52.520;13.332;2023-02-28T05:04:12;8.50;;;3.60;;
19095;SDS011;9680;52.520;13.332;2023-02-28T05:06:39;9.73;;;4.10;;
19095;SDS011;9680;52.520;13.332;2023-02-28T05:09:05;13.17;;;5.37;;
19095;SDS011;9680;52.520;13.332;2023-02-28T05:11:33;9.87;;;4.40;;
19095;SDS011;9680;52.520;13.332;2023-02-28T05:14:01;9.10;;;3.77;;
19095;SDS011;9680;52.520;13.332;2023-02-28T05:16:30;10.53;;;4.30;;
19095;SDS011;9680;52.520;13.332;2023-02-28T05:18:57;9.67;;;4.03;;
19095;SDS011;9680;52.520;13.332;2023-02-28T05:21:25;12.03;;;4.47;;
19095;SDS011;9680;52.520;13.332;2023-02-28T05:23:54;10.23;;;4.10;;
19095;SDS011;9680;52.520;13.332;2023-02-28T05:26:22;9.47;;;4.00;;
19095;SDS011;9680;52.520;13.332;2023-02-28T05:28:49;9.97;;;4.17;;
19095;SDS011;9680;52.520;13.332;2023-02-28T05:31:16;10.80;;;3.87;;
19095;SDS011;9680;52.520;13.332;2023-02-28T05:33:47;10.20;;;4.00;;
19095;SDS011;9680;52.520;13.332;2023-02-28T05:36:14;11.60;;;4.00;;
19095;SDS011;9680;52.520;13.332;2023-02-28T05:38:41;9.70;;;4.13;;
19095;SDS011;9680;52.520;13.332;2023-02-28T05:41:08;12.70;;;5.00;;
19095;SDS011;9680;52.520;13.332;2023-02-28T05:43:36;9.97;;;4.63;;
19095;SDS011;9680;52.520;13.332;2023-02-28T05:46:04;10.23;;;4.17;;
19095;SDS011;9680;52.520;13.332;2023-02-28T05:48:31;13.07;;;4.40;;
19095;SDS011;9680;52.520;13.332;2023-02-28T05:50:59;10.07;;;3.97;;
19095;SDS011;9680;52.520;13.332;2023-02-28T05:53:27;9.80;;;4.30;;
19095;SDS011;9680;52.520;13.332;2023-02-28T05:55:55;13.77;;;5.30;;
19095;SDS011;9680;52.520;13.332;2023-02-28T05:58:22;10.93;;;4.30;;
19095;SDS011;9680;52.520;13.332;2023-02-28T06:00:50;9.80;;;4.07;;
19095;SDS011;9680;52.520;13.332;2023-02-28T06:03:17;11.03;;;4.00;;
19095;SDS011;9680;52.520;13.332;2023-02-28T06:05:44;11.80;;;4.20;;
19095;SDS011;9680;52.520;13.332;2023-02-28T06:08:12;10.50;;;4.00;;
19095;SDS011;9680;52.520;13.332;2023-02-28T06:10:39;10.87;;;4.40;;
19095;SDS011;9680;52.520;13.332;2023-02-28T06:13:06;13.57;;;4.53;;
19095;SDS011;9680;52.520;13.332;2023-02-28T06:15:32;9.50;;;3.77;;
19095;SDS011;9680;52.520;13.332;2023-02-28T06:17:59;16.30;;;4.83;;
19095;SDS011;9680;52.520;13.332;2023-02-28T06:20:27;16.63;;;4.73;;
19095;SDS011;9680;52.520;13.332;2023-02-28T06:22:54;9.33;;;4.50;;
19095;SDS011;9680;52.520;13.332;2023-02-28T06:25:25;10.07;;;4.50;;
19095;SDS011;9680;52.520;13.332;2023-02-28T06:27:52;11.83;;;4.77;;
19095;SDS011;9680;52.520;13.332;2023-02-28T06:30:19;11.57;;;4.40;;
19095;SDS011;9680;52.520;13.332;2023-02-28T06:32:48;11.13;;;4.30;;
19095;SDS011;9680;52.520;13.332;2023-02-28T06:35:15;12.93;;;4.50;;
19095;SDS011;9680;52.520;13.332;2023-02-28T06:37:42;14.27;;;4.63;;
19095;SDS011;9680;52.520;13.332;2023-02-28T06:40:10;10.00;;;4.47;;
19095;SDS011;9680;52.520;13.332;2023-02-28T06:42:39;11.23;;;4.67;;
19095;SDS011;9680;52.520;13.332;2023-02-28T06:45:06;13.70;;;4.93;;
19095;SDS011;9680;52.520;13.332;2023-02-28T06:47:35;12.27;;;4.80;;
19095;SDS011;9680;52.520;13.332;2023-02-28T06:50:02;13.63;;;5.07;;
19095;SDS011;9680;52.520;13.332;2023-02-28T06:52:30;14.30;;;5.23;;
19095;SDS011;9680;52.520;13.332;2023-02-28T06:54:56;11.77;;;5.13;;
19095;SDS011;9680;52.520;13.332;2023-02-28T06:57:27;13.23;;;5.33;;
19095;SDS011;9680;52.520;13.332;2023-02-28T06:59:57;15.93;;;5.10;;
19095;SDS011;9680;52.520;13.332;2023-02-28T07:02:24;13.83;;;5.47;;
19095;SDS011;9680;52.520;13.332;2023-02-28T07:04:51;13.23;;;5.47;;
19095;SDS011;9680;52.520;13.332;2023-02-28T07:07:18;15.33;;;6.93;;
19095;SDS011;9680;52.520;13.332;2023-02-28T07:09:45;20.97;;;7.67;;
19095;SDS011;9680;52.520;13.332;2023-02-28T07:12:12;19.23;;;7.37;;
19095;SDS011;9680;52.520;13.332;2023-02-28T07:14:39;16.00;;;6.33;;
19095;SDS011;9680;52.520;13.332;2023-02-28T07:17:08;16.17;;;6.37;;
19095;SDS011;9680;52.520;13.332;2023-02-28T07:19:37;18.83;;;6.53;;
19095;SDS011;9680;52.520;13.332;2023-02-28T07:22:03;19.83;;;5.97;;
19095;SDS011;9680;52.520;13.332;2023-02-28T07:24:30;14.70;;;5.77;;
19095;SDS011;9680;52.520;13.332;2023-02-28T07:26:57;18.60;;;6.57;;
19095;SDS011;9680;52.520;13.332;2023-02-28T07:29:24;17.27;;;6.27;;
19095;SDS011;9680;52.520;13.332;2023-02-28T07:31:51;12.67;;;5.10;;
19095;SDS011;9680;52.520;13.332;2023-02-28T07:34:22;12.57;;;5.90;;
19095;SDS011;9680;52.520;13.332;2023-02-28T07:36:49;14.77;;;6.37;;
19095;SDS011;9680;52.520;13.332;2023-02-28T07:39:18;13.53;;;5.90;;
19095;SDS011;9680;52.520;13.332;2023-02-28T07:41:48;13.97;;;5.53;;
19095;SDS011;9680;52.520;13.332;2023-02-28T07:44:15;12.37;;;5.70;;
19095;SDS011;9680;52.520;13.332;2023-02-28T07:46:42;12.20;;;5.30;;
19095;SDS011;9680;52.520;13.332;2023-02-28T07:49:09;11.90;;;4.27;;
19095;SDS011;9680;52.520;13.332;2023-02-28T07:51:37;6.60;;;2.97;;
19095;SDS011;9680;52.520;13.332;2023-02-28T07:54:04;9.97;;;3.53;;
19095;SDS011;9680;52.520;13.332;2023-02-28T07:56:31;11.90;;;3.10;;
19095;SDS011;9680;52.520;13.332;2023-02-28T07:58:58;8.17;;;3.30;;
19095;SDS011;9680;52.520;13.332;2023-02-28T08:01:25;8.57;;;3.23;;
19095;SDS011;9680;52.520;13.332;2023-02-28T08:03:51;6.20;;;2.90;;
19095;SDS011;9680;52.520;13.332;2023-02-28T08:06:20;7.20;;;2.90;;
19095;SDS011;9680;52.520;13.332;2023-02-28T08:08:50;8.07;;;2.93;;
19095;SDS011;9680;52.520;13.332;2023-02-28T08:11:17;6.77;;;2.60;;
19095;SDS011;9680;52.520;13.332;2023-02-28T08:13:45;10.07;;;2.40;;
19095;SDS011;9680;52.520;13.332;2023-02-28T08:16:12;4.87;;;2.30;;
19095;SDS011;9680;52.520;13.332;2023-02-28T08:18:42;6.23;;;2.60;;
19095;SDS011;9680;52.520;13.332;2023-02-28T08:21:09;10.20;;;2.73;;
19095;SDS011;9680;52.520;13.332;2023-02-28T08:23:36;8.90;;;3.00;;
19095;SDS011;9680;52.520;13.332;2023-02-28T08:26:05;6.80;;;2.57;;
19095;SDS011;9680;52.520;13.332;2023-02-28T08:28:32;5.10;;;2.23;;
19095;SDS011;9680;52.520;13.332;2023-02-28T08:30:59;7.40;;;2.13;;
19095;SDS011;9680;52.520;13.332;2023-02-28T08:33:26;5.53;;;2.33;;
19095;SDS011;9680;52.520;13.332;2023-02-28T08:35:54;4.23;;;2.33;;
19095;SDS011;9680;52.520;13.332;2023-02-28T08:38:21;4.97;;;2.40;;
19095;SDS011;9680;52.520;13.332;2023-02-28T08:40:47;7.07;;;2.80;;
19095;SDS011;9680;52.520;13.332;2023-02-28T08:43:15;6.97;;;2.50;;
19095;SDS011;9680;52.520;13.332;2023-02-28T08:45:42;5.40;;;2.50;;
19095;SDS011;9680;52.520;13.332;2023-02-28T08:48:09;6.97;;;3.00;;
19095;SDS011;9680;52.520;13.332;2023-02-28T08:50:36;5.73;;;2.40;;
19095;SDS011;9680;52.520;13.332;2023-02-28T08:53:02;5.60;;;2.57;;
19095;SDS011;9680;52.520;13.332;2023-02-28T08:55:29;4.67;;;2.23;;
19095;SDS011;9680;52.520;13.332;2023-02-28T08:57:56;6.33;;;2.37;;
19095;SDS011;9680;52.520;13.332;2023-02-28T09:00:24;6.17;;;1.90;;
19095;SDS011;9680;52.520;13.332;2023-02-28T09:02:51;3.27;;;1.67;;
19095;SDS011;9680;52.520;13.332;2023-02-28T09:05:19;3.70;;;1.40;;
19095;SDS011;9680;52.520;13.332;2023-02-28T09:07:46;2.97;;;1.50;;
19095;SDS011;9680;52.520;13.332;2023-02-28T09:10:13;4.13;;;1.83;;
19095;SDS011;9680;52.520;13.332;2023-02-28T09:12:40;4.67;;;1.50;;
19095;SDS011;9680;52.520;13.332;2023-02-28T09:15:07;4.53;;;1.90;;
19095;SDS011;9680;52.520;13.332;2023-02-28T09:17:35;3.00;;;1.33;;
19095;SDS011;9680;52.520;13.332;2023-02-28T09:20:02;5.10;;;1.90;;
19095;SDS011;9680;52.520;13.332;2023-02-28T09:22:30;4.47;;;1.83;;
19095;SDS011;9680;52.520;13.332;2023-02-28T09:24:57;3.60;;;1.73;;
19095;SDS011;9680;52.520;13.332;2023-02-28T09:27:24;4.90;;;1.90;;
19095;SDS011;9680;52.520;13.332;2023-02-28T09:29:56;3.97;;;1.77;;
19095;SDS011;9680;52.520;13.332;2023-02-28T09:32:22;4.07;;;1.60;;
19095;SDS011;9680;52.520;13.332;2023-02-28T09:34:51;4.13;;;1.60;;
19095;SDS011;9680;52.520;13.332;2023-02-28T09:37:18;4.77;;;2.00;;
19095;SDS011;9680;52.520;13.332;2023-02-28T09:39:45;4.73;;;1.70;;
19095;SDS011;9680;52.520;13.332;2023-02-28T09:42:14;3.87;;;1.53;;
19095;SDS011;9680;52.520;13.332;2023-02-28T09:44:48;3.27;;;1.57;;
19095;SDS011;9680;52.520;13.332;2023-02-28T09:47:18;3.97;;;1.67;;
19095;SDS011;9680;52.520;13.332;2023-02-28T09:49:55;3.43;;;1.60;;
19095;SDS011;9680;52.520;13.332;2023-02-28T09:52:26;4.47;;;1.50;;
19095;SDS011;9680;52.520;13.332;2023-02-28T09:55:00;3.93;;;1.70;;
19095;SDS011;9680;52.520;13.332;2023-02-28T09:57:44;2.97;;;1.57;;
19095;SDS011;9680;52.520;13.332;2023-02-28T10:00:13;7.63;;;1.60;;
19095;SDS011;9680;52.520;13.332;2023-02-28T10:02:55;5.40;;;1.53;;
19095;SDS011;9680;52.520;13.332;2023-02-28T10:05:35;3.83;;;1.67;;
19095;SDS011;9680;52.520;13.332;2023-02-28T10:08:09;6.83;;;1.70;;
19095;SDS011;9680;52.520;13.332;2023-02-28T10:10:41;4.97;;;1.60;;
19095;SDS011;9680;52.520;13.332;2023-02-28T10:13:15;4.67;;;1.80;;
19095;SDS011;9680;52.520;13.332;2023-02-28T10:15:51;6.83;;;1.93;;
19095;SDS011;9680;52.520;13.332;2023-02-28T10:18:23;6.20;;;1.87;;
19095;SDS011;9680;52.520;13.332;2023-02-28T10:20:54;5.27;;;1.80;;
19095;SDS011;9680;52.520;13.332;2023-02-28T10:23:23;5.37;;;2.00;;
19095;SDS011;9680;52.520;13.332;2023-02-28T10:25:55;5.57;;;1.87;;
19095;SDS011;9680;52.520;13.332;2023-02-28T10:31:18;5.70;;;1.90;;
19095;SDS011;9680;52.520;13.332;2023-02-28T10:33:47;5.20;;;2.17;;
19095;SDS011;9680;52.520;13.332;2023-02-28T10:36:16;4.53;;;2.20;;
19095;SDS011;9680;52.520;13.332;2023-02-28T10:38:45;5.00;;;2.03;;
19095;SDS011;9680;52.520;13.332;2023-02-28T10:41:13;7.27;;;2.17;;
19095;SDS011;9680;52.520;13.332;2023-02-28T10:43:42;9.07;;;2.47;;
19095;SDS011;9680;52.520;13.332;2023-02-28T10:46:12;5.77;;;2.47;;
19095;SDS011;9680;52.520;13.332;2023-02-28T10:48:58;3.63;;;1.73;;
19095;SDS011;9680;52.520;13.332;2023-02-28T10:51:36;6.93;;;2.20;;
19095;SDS011;9680;52.520;13.332;2023-02-28T10:54:04;3.07;;;1.83;;
19095;SDS011;9680;52.520;13.332;2023-02-28T10:56:32;5.23;;;2.17;;
19095;SDS011;9680;52.520;13.332;2023-02-28T10:59:00;5.03;;;2.10;;
19095;SDS011;9680;52.520;13.332;2023-02-28T11:01:36;5.57;;;1.83;;
19095;SDS011;9680;52.520;13.332;2023-02-28T11:04:16;4.67;;;2.17;;
19095;SDS011;9680;52.520;13.332;2023-02-28T11:06:48;5.60;;;2.10;;
19095;SDS011;9680;52.520;13.332;2023-02-28T11:09:25;4.20;;;1.80;;
19095;SDS011;9680;52.520;13.332;2023-02-28T11:11:55;6.07;;;1.70;;
19095;SDS011;9680;52.520;13.332;2023-02-28T11:14:24;8.57;;;2.00;;
19095;SDS011;9680;52.520;13.332;2023-02-28T11:16:52;4.70;;;1.50;;
19095;SDS011;9680;52.520;13.332;2023-02-28T11:19:23;5.37;;;1.90;;
19095;SDS011;9680;52.520;13.332;2023-02-28T11:21:54;4.10;;;1.50;;
19095;SDS011;9680;52.520;13.332;2023-02-28T11:24:24;6.03;;;1.90;;
19095;SDS011;9680;52.520;13.332;2023-02-28T11:26:55;4.93;;;1.93;;
19095;SDS011;9680;52.520;13.332;2023-02-28T11:29:23;4.27;;;1.97;;
19095;SDS011;9680;52.520;13.332;2023-02-28T11:32:02;7.03;;;2.00;;
19095;SDS011;9680;52.520;13.332;2023-02-28T11:34:31;7.10;;;1.97;;
19095;SDS011;9680;52.520;13.332;2023-02-28T11:37:00;4.53;;;2.00;;
19095;SDS011;9680;52.520;13.332;2023-02-28T11:39:30;5.03;;;1.90;;
19095;SDS011;9680;52.520;13.332;2023-02-28T11:42:10;5.77;;;1.50;;
19095;SDS011;9680;52.520;13.332;2023-02-28T11:47:47;5.97;;;1.80;;
19095;SDS011;9680;52.520;13.332;2023-02-28T11:50:28;4.17;;;1.90;;
19095;SDS011;9680;52.520;13.332;2023-02-28T11:53:10;6.23;;;2.10;;
19095;SDS011;9680;52.520;13.332;2023-02-28T11:55:44;4.77;;;2.27;;
19095;SDS011;9680;52.520;13.332;2023-02-28T11:58:27;6.83;;;2.20;;
19095;SDS011;9680;52.520;13.332;2023-02-28T12:01:08;4.77;;;2.20;;
19095;SDS011;9680;52.520;13.332;2023-02-28T12:03:45;3.53;;;1.80;;
19095;SDS011;9680;52.520;13.332;2023-02-28T12:06:22;4.47;;;2.00;;
19095;SDS011;9680;52.520;13.332;2023-02-28T12:11:55;4.80;;;2.23;;
19095;SDS011;9680;52.520;13.332;2023-02-28T12:17:22;4.47;;;2.20;;
19095;SDS011;9680;52.520;13.332;2023-02-28T12:20:00;5.57;;;2.43;;
19095;SDS011;9680;52.520;13.332;2023-02-28T12:22:37;7.47;;;2.33;;
19095;SDS011;9680;52.520;13.332;2023-02-28T12:25:35;5.10;;;2.30;;
19095;SDS011;9680;52.520;13.332;2023-02-28T12:28:14;5.20;;;2.23;;
19095;SDS011;9680;52.520;13.332;2023-02-28T12:30:46;7.57;;;2.43;;
19095;SDS011;9680;52.520;13.332;2023-02-28T12:33:21;4.93;;;2.23;;
19095;SDS011;9680;52.520;13.332;2023-02-28T12:35:52;6.43;;;2.60;;
19095;SDS011;9680;52.520;13.332;2023-02-28T12:38:22;6.63;;;2.43;;
19095;SDS011;9680;52.520;13.332;2023-02-28T12:40:56;5.63;;;2.40;;
19095;SDS011;9680;52.520;13.332;2023-02-28T12:43:27;4.07;;;1.90;;
19095;SDS011;9680;52.520;13.332;2023-02-28T12:46:02;6.40;;;2.40;;
19095;SDS011;9680;52.520;13.332;2023-02-28T12:48:37;5.23;;;2.40;;
19095;SDS011;9680;52.520;13.332;2023-02-28T12:51:09;3.73;;;2.10;;
19095;SDS011;9680;52.520;13.332;2023-02-28T12:53:41;7.03;;;2.50;;
19095;SDS011;9680;52.520;13.332;2023-02-28T12:56:32;6.43;;;2.30;;
19095;SDS011;9680;52.520;13.332;2023-02-28T12:59:10;8.73;;;2.63;;
19095;SDS011;9680;52.520;13.332;2023-02-28T13:01:54;5.03;;;2.40;;
19095;SDS011;9680;52.520;13.332;2023-02-28T13:07:30;6.27;;;2.63;;
19095;SDS011;9680;52.520;13.332;2023-02-28T13:10:09;4.63;;;2.30;;
19095;SDS011;9680;52.520;13.332;2023-02-28T13:12:49;9.43;;;2.40;;
19095;SDS011;9680;52.520;13.332;2023-02-28T13:15:18;3.80;;;2.27;;
19095;SDS011;9680;52.520;13.332;2023-02-28T13:17:50;7.27;;;2.70;;
19095;SDS011;9680;52.520;13.332;2023-02-28T13:20:20;7.13;;;2.70;;
19095;SDS011;9680;52.520;13.332;2023-02-28T13:22:50;5.43;;;2.30;;
19095;SDS011;9680;52.520;13.332;2023-02-28T13:34:46;5.60;;;2.40;;
19095;SDS011;9680;52.520;13.332;2023-02-28T13:37:34;6.07;;;2.20;;
19095;SDS011;9680;52.520;13.332;2023-02-28T13:40:22;5.90;;;2.40;;
19095;SDS011;9680;52.520;13.332;2023-02-28T13:43:02;5.57;;;2.50;;
19095;SDS011;9680;52.520;13.332;2023-02-28T13:45:31;7.17;;;2.53;;
19095;SDS011;9680;52.520;13.332;2023-02-28T13:48:03;7.03;;;2.43;;
19095;SDS011;9680;52.520;13.332;2023-02-28T13:50:43;7.30;;;2.47;;
19095;SDS011;9680;52.520;13.332;2023-02-28T13:53:21;7.50;;;2.87;;
19095;SDS011;9680;52.520;13.332;2023-02-28T13:56:01;9.27;;;2.50;;
19095;SDS011;9680;52.520;13.332;2023-02-28T13:58:41;5.37;;;2.40;;
19095;SDS011;9680;52.520;13.332;2023-02-28T14:01:16;3.73;;;2.10;;
19095;SDS011;9680;52.520;13.332;2023-02-28T14:04:11;5.07;;;2.37;;
19095;SDS011;9680;52.520;13.332;2023-02-28T14:07:00;6.70;;;2.40;;
19095;SDS011;9680;52.520;13.332;2023-02-28T14:09:29;4.57;;;2.13;;
19095;SDS011;9680;52.520;13.332;2023-02-28T14:12:10;7.33;;;2.10;;
19095;SDS011;9680;52.520;13.332;2023-02-28T14:15:30;5.80;;;2.53;;
19095;SDS011;9680;52.520;13.332;2023-02-28T14:18:05;7.43;;;2.57;;
19095;SDS011;9680;52.520;13.332;2023-02-28T14:20:43;5.13;;;2.13;;
19095;SDS011;9680;52.520;13.332;2023-02-28T14:23:16;9.20;;;2.73;;
19095;SDS011;9680;52.520;13.332;2023-02-28T14:25:54;5.63;;;2.50;;
19095;SDS011;9680;52.520;13.332;2023-02-28T14:28:37;5.57;;;2.33;;
19095;SDS011;9680;52.520;13.332;2023-02-28T14:31:13;5.07;;;2.30;;
19095;SDS011;9680;52.520;13.332;2023-02-28T14:33:47;5.60;;;2.70;;
19095;SDS011;9680;52.520;13.332;2023-02-28T14:36:31;4.57;;;2.20;;
19095;SDS011;9680;52.520;13.332;2023-02-28T14:39:05;9.13;;;2.90;;
19095;SDS011;9680;52.520;13.332;2023-02-28T14:41:35;6.90;;;2.20;;
19095;SDS011;9680;52.520;13.332;2023-02-28T14:44:13;4.70;;;2.10;;
19095;SDS011;9680;52.520;13.332;2023-02-28T14:46:43;8.93;;;2.40;;
19095;SDS011;9680;52.520;13.332;2023-02-28T14:49:13;8.33;;;3.10;;
19095;SDS011;9680;52.520;13.332;2023-02-28T14:51:45;5.80;;;2.57;;
19095;SDS011;9680;52.520;13.332;2023-02-28T14:54:16;5.03;;;2.40;;
19095;SDS011;9680;52.520;13.332;2023-02-28T14:56:49;6.63;;;2.40;;
19095;SDS011;9680;52.520;13.332;2023-02-28T14:59:23;4.57;;;2.30;;
19095;SDS011;9680;52.520;13.332;2023-02-28T15:01:52;4.30;;;2.03;;
19095;SDS011;9680;52.520;13.332;2023-02-28T15:04:21;8.63;;;2.57;;
19095;SDS011;9680;52.520;13.332;2023-02-28T15:07:08;6.23;;;2.50;;
19095;SDS011;9680;52.520;13.332;2023-02-28T15:09:37;9.20;;;2.50;;
19095;SDS011;9680;52.520;13.332;2023-02-28T15:12:04;7.27;;;2.50;;
19095;SDS011;9680;52.520;13.332;2023-02-28T15:14:32;4.83;;;2.20;;
19095;SDS011;9680;52.520;13.332;2023-02-28T15:17:05;4.40;;;2.40;;
19095;SDS011;9680;52.520;13.332;2023-02-28T15:19:39;5.23;;;2.20;;
19095;SDS011;9680;52.520;13.332;2023-02-28T15:22:11;5.40;;;2.80;;
19095;SDS011;9680;52.520;13.332;2023-02-28T15:24:46;6.13;;;2.83;;
19095;SDS011;9680;52.520;13.332;2023-02-28T15:27:19;6.17;;;2.73;;
19095;SDS011;9680;52.520;13.332;2023-02-28T15:29:48;6.27;;;2.37;;
19095;SDS011;9680;52.520;13.332;2023-02-28T15:32:23;6.17;;;2.30;;
19095;SDS011;9680;52.520;13.332;2023-02-28T15:34:53;4.87;;;2.40;;
19095;SDS011;9680;52.520;13.332;2023-02-28T15:37:37;6.00;;;2.50;;
19095;SDS011;9680;52.520;13.332;2023-02-28T15:40:12;6.70;;;2.80;;
19095;SDS011;9680;52.520;13.332;2023-02-28T15:42:41;5.23;;;2.40;;